createdAt,value
2022-10-12T00:01:07.123Z,24.35
2022-10-12T00:03:55.364Z,25.95
2022-10-12T00:06:37.363Z,24.73
2022-10-12T00:09:24.383Z,24.48
2022-10-12T00:11:57.440Z,24.75
2022-10-12T00:14:44.363Z,28.05
2022-10-12T00:17:17.444Z,25.08
2022-10-12T00:20:04.340Z,23.50
2022-10-12T00:22:45.411Z,24.42
2022-10-12T00:25:39.365Z,24.42
2022-10-12T00:28:27.402Z,25.08
2022-10-12T00:31:00.470Z,24.00
2022-10-12T00:33:48.336Z,23.63
2022-10-12T00:36:25.456Z,23.83
2022-10-12T00:39:14.381Z,22.48
2022-10-12T00:41:57.357Z,24.55
2022-10-12T00:45:00.389Z,24.27
2022-10-12T00:48:02.386Z,24.33
2022-10-12T00:50:51.362Z,22.75
2022-10-12T00:53:31.708Z,23.67
2022-10-12T00:56:25.410Z,24.00
2022-10-12T00:58:59.445Z,23.00
2022-10-12T01:01:46.389Z,22.25
2022-10-12T01:04:21.471Z,24.33
2022-10-12T01:07:13.409Z,26.13
2022-10-12T01:09:55.360Z,24.85
2022-10-12T01:12:45.360Z,25.73
2022-10-12T01:15:19.445Z,24.40
2022-10-12T01:18:17.361Z,24.50
2022-10-12T01:21:22.404Z,23.88
2022-10-12T01:24:37.359Z,23.40
2022-10-12T01:27:42.406Z,23.88
2022-10-12T01:30:22.564Z,22.95
2022-10-12T01:33:24.407Z,21.60
2022-10-12T01:36:19.403Z,22.92
2022-10-12T01:39:17.366Z,22.95
2022-10-12T01:42:02.393Z,22.83
2022-10-12T01:44:56.414Z,21.63
2022-10-12T01:47:46.394Z,22.38
2022-10-12T01:50:22.483Z,22.20
2022-10-12T01:53:27.399Z,21.63
2022-10-12T01:56:06.465Z,21.05
2022-10-12T01:59:15.442Z,22.63
2022-10-12T02:02:02.409Z,22.92
2022-10-12T02:05:13.410Z,21.63
2022-10-12T02:08:13.411Z,21.70
2022-10-12T02:11:31.405Z,21.27
2022-10-12T02:14:23.410Z,23.70
2022-10-12T02:17:07.400Z,22.75
2022-10-12T02:20:04.408Z,22.27
2022-10-12T02:22:49.410Z,22.42
2022-10-12T02:25:44.416Z,20.70
2022-10-12T02:28:40.448Z,19.40
2022-10-12T02:32:00.395Z,21.90
2022-10-12T02:34:54.421Z,20.88
2022-10-12T02:37:37.619Z,23.42
2022-10-12T02:40:45.411Z,22.67
2022-10-12T02:43:27.449Z,22.27
2022-10-12T02:46:16.394Z,20.70
2022-10-12T02:48:53.499Z,19.80
2022-10-12T02:51:42.394Z,21.85
2022-10-12T02:54:15.470Z,23.48
2022-10-12T02:57:02.421Z,22.95
2022-10-12T02:59:35.470Z,23.38
2022-10-12T03:02:22.408Z,21.85
2022-10-12T03:04:55.503Z,21.40
2022-10-12T03:07:42.417Z,20.25
2022-10-12T03:10:15.463Z,21.23
2022-10-12T03:13:02.400Z,21.20
2022-10-12T03:15:35.465Z,21.08
2022-10-12T03:18:22.404Z,20.05
2022-10-12T03:20:55.479Z,19.80
2022-10-12T03:23:49.407Z,20.60
2022-10-12T03:26:36.408Z,20.90
2022-10-12T03:29:09.477Z,21.25
2022-10-12T03:31:56.408Z,21.35
2022-10-12T03:34:29.542Z,19.17
2022-10-12T03:37:16.406Z,21.63
2022-10-12T03:39:49.636Z,21.33
2022-10-12T03:42:36.395Z,19.15
2022-10-12T03:45:09.897Z,21.63
2022-10-12T03:47:58.973Z,22.52
2022-10-12T03:50:35.073Z,20.08
2022-10-12T03:53:21.433Z,21.17
2022-10-12T03:55:57.473Z,21.95
2022-10-12T03:58:44.426Z,21.33
2022-10-12T04:01:17.509Z,20.30
2022-10-12T04:04:04.428Z,19.30
2022-10-12T04:06:37.554Z,21.38
2022-10-12T04:09:24.439Z,20.58
2022-10-12T04:12:12.428Z,21.45
2022-10-12T04:14:59.422Z,21.05
2022-10-12T04:17:39.785Z,19.60
2022-10-12T04:20:33.407Z,22.95
2022-10-12T04:23:27.444Z,24.92
2022-10-12T04:26:15.430Z,25.23
2022-10-12T04:28:51.638Z,21.33
2022-10-12T04:31:38.437Z,19.27
2022-10-12T04:34:18.429Z,20.33
2022-10-12T04:37:12.437Z,20.38
2022-10-12T04:39:59.429Z,19.45
2022-10-12T04:42:35.548Z,18.35
2022-10-12T04:45:22.434Z,19.48
2022-10-12T04:47:56.626Z,20.10
2022-10-12T04:50:43.449Z,18.80
2022-10-12T04:53:16.503Z,18.33
2022-10-12T04:56:03.456Z,19.45
2022-10-12T04:58:43.432Z,21.40
2022-10-12T05:01:30.483Z,21.42
2022-10-12T05:04:03.565Z,18.50
2022-10-12T05:06:50.441Z,20.10
2022-10-12T05:09:30.454Z,19.33
2022-10-12T05:12:24.437Z,17.42
2022-10-12T05:15:11.464Z,19.02
2022-10-12T05:17:44.516Z,18.52
2022-10-12T05:20:31.447Z,19.05
2022-10-12T05:23:05.548Z,17.92
2022-10-12T05:25:52.460Z,17.10
2022-10-12T05:28:25.611Z,22.52
2022-10-12T05:31:12.436Z,20.83
2022-10-12T05:33:52.464Z,19.10
2022-10-12T05:36:46.474Z,19.75
2022-10-12T05:39:40.448Z,17.92
2022-10-12T05:42:27.462Z,17.35
2022-10-12T05:45:00.577Z,18.77
2022-10-12T05:47:47.473Z,19.63
2022-10-12T05:50:27.466Z,19.95
2022-10-12T05:53:21.464Z,20.20
2022-10-12T05:56:15.451Z,19.80
2022-10-12T05:59:02.454Z,18.35
2022-10-12T06:01:35.761Z,19.17
2022-10-12T06:04:23.471Z,20.02
2022-10-12T06:06:56.608Z,19.83
2022-10-12T06:09:46.466Z,19.20
2022-10-12T06:12:19.725Z,19.27
2022-10-12T06:15:06.480Z,20.30
2022-10-12T06:17:46.486Z,20.45
2022-10-12T06:20:33.492Z,24.23
2022-10-12T06:23:06.625Z,25.30
2022-10-12T06:26:01.491Z,25.98
2022-10-12T06:28:48.564Z,24.20
2022-10-12T06:31:21.555Z,22.25
2022-10-12T06:34:08.501Z,21.77
2022-10-12T06:36:41.645Z,19.90
2022-10-12T06:39:28.493Z,19.65
2022-10-12T06:42:01.685Z,23.33
2022-10-12T06:44:48.481Z,20.55
2022-10-12T06:47:21.577Z,20.13
2022-10-12T06:50:08.477Z,21.10
2022-10-12T06:52:43.584Z,21.08
2022-10-12T06:55:30.484Z,19.42
2022-10-12T06:58:03.579Z,19.05
2022-10-12T07:00:50.509Z,24.00
2022-10-12T07:03:30.492Z,24.40
2022-10-12T07:06:20.622Z,20.83
2022-10-12T07:09:00.503Z,22.45
2022-10-12T07:11:50.508Z,20.23
2022-10-12T07:14:30.489Z,20.98
2022-10-12T07:17:24.487Z,23.02
2022-10-12T07:20:19.551Z,23.25
2022-10-12T07:23:13.555Z,20.52
2022-10-12T07:26:08.510Z,23.08
2022-10-12T07:28:56.967Z,21.38
2022-10-12T07:31:37.555Z,19.20
2022-10-12T07:34:31.556Z,19.58
2022-10-12T07:37:25.651Z,24.45
2022-10-12T07:40:19.554Z,20.50
2022-10-12T07:43:15.823Z,16.63
2022-10-12T07:45:56.562Z,18.50
2022-10-12T07:48:49.717Z,15.77
2022-10-12T07:51:30.533Z,15.45
2022-10-12T07:54:29.148Z,15.38
2022-10-12T07:57:16.530Z,14.40
2022-10-12T07:59:49.580Z,15.55
2022-10-12T08:02:36.501Z,15.32
2022-10-12T08:05:09.695Z,14.43
2022-10-12T08:07:59.555Z,14.98
2022-10-12T08:10:32.615Z,14.65
2022-10-12T08:13:22.518Z,14.63
2022-10-12T08:15:56.618Z,15.13
2022-10-12T08:18:43.555Z,15.55
2022-10-12T08:21:18.710Z,14.27
2022-10-12T08:24:15.563Z,14.15
2022-10-12T08:27:09.558Z,14.93
2022-10-12T08:29:56.575Z,15.77
2022-10-12T08:32:36.571Z,14.93
2022-10-12T08:35:30.509Z,14.63
2022-10-12T08:38:25.557Z,13.38
2022-10-12T08:41:33.583Z,15.38
2022-10-12T08:44:27.651Z,14.18
2022-10-12T08:47:41.969Z,14.90
2022-10-12T08:50:24.678Z,15.35
2022-10-12T08:53:18.621Z,15.52
2022-10-12T08:56:00.587Z,16.33
2022-10-12T08:58:47.562Z,18.13
2022-10-12T09:01:58.709Z,17.30
2022-10-12T09:05:00.591Z,13.75
2022-10-12T09:07:44.591Z,13.35
2022-10-12T09:11:08.629Z,17.33
2022-10-12T09:14:11.558Z,13.15
2022-10-12T09:16:49.679Z,19.25
2022-10-12T09:19:44.585Z,18.13
2022-10-12T09:22:32.571Z,17.45
2022-10-12T09:25:28.577Z,16.17
2022-10-12T09:28:52.593Z,13.60
2022-10-12T09:31:54.590Z,13.60
2022-10-12T09:34:30.680Z,17.25
2022-10-12T09:37:32.636Z,15.00
2022-10-12T09:40:06.668Z,16.23
2022-10-12T09:42:53.558Z,18.48
2022-10-12T09:45:35.578Z,14.63
2022-10-12T09:48:29.585Z,15.07
2022-10-12T09:51:08.681Z,14.60
2022-10-12T09:53:57.808Z,12.45
2022-10-12T09:56:33.694Z,13.60
2022-10-12T09:59:38.581Z,15.13
2022-10-12T10:02:14.693Z,15.18
2022-10-12T10:05:01.560Z,16.00
2022-10-12T10:07:40.688Z,17.98
2022-10-12T10:10:31.822Z,14.68
2022-10-12T10:13:06.692Z,14.55
2022-10-12T10:15:56.631Z,16.13
2022-10-12T10:18:39.698Z,15.82
2022-10-12T10:21:41.577Z,15.40
2022-10-12T10:24:31.699Z,15.18
2022-10-12T10:27:36.628Z,14.52
2022-10-12T10:30:33.890Z,16.33
2022-10-12T10:33:26.720Z,14.45
2022-10-12T10:36:30.109Z,14.52
2022-10-12T10:39:27.577Z,13.60
2022-10-12T10:42:01.689Z,17.33
2022-10-12T10:44:57.665Z,16.95
2022-10-12T10:47:37.594Z,15.38
2022-10-12T10:50:51.579Z,17.15
2022-10-12T10:53:37.656Z,15.63
2022-10-12T10:56:34.638Z,13.90
2022-10-12T10:59:27.658Z,15.20
2022-10-12T11:02:06.801Z,15.50
2022-10-12T11:05:22.635Z,15.77
2022-10-12T11:08:09.587Z,14.77
2022-10-12T11:11:09.596Z,14.60
2022-10-12T11:13:46.705Z,15.20
2022-10-12T11:16:48.647Z,15.25
2022-10-12T11:19:43.652Z,14.93
2022-10-12T11:22:46.648Z,15.85
2022-10-12T11:25:49.272Z,14.43
2022-10-12T11:28:46.720Z,14.27
2022-10-12T11:31:44.627Z,15.07
2022-10-12T11:34:26.095Z,17.00
2022-10-12T11:37:21.662Z,13.98
2022-10-12T11:40:05.652Z,16.80
2022-10-12T11:42:55.710Z,17.55
2022-10-12T11:45:40.673Z,15.43
2022-10-12T11:48:35.657Z,15.98
2022-10-12T11:51:17.656Z,16.58
2022-10-12T11:54:16.137Z,17.17
2022-10-12T11:57:02.623Z,14.15
2022-10-12T12:00:04.687Z,15.07
2022-10-12T12:03:34.699Z,18.00
2022-10-12T12:06:41.662Z,15.00
2022-10-12T12:09:50.342Z,14.73
2022-10-12T12:12:44.678Z,15.15
2022-10-12T12:15:31.659Z,14.50
2022-10-12T12:18:18.732Z,14.30
2022-10-12T12:21:11.758Z,16.33
2022-10-12T12:23:49.697Z,13.75
2022-10-12T12:26:37.656Z,12.85
2022-10-12T12:29:22.754Z,14.73
2022-10-12T12:32:09.667Z,14.48
2022-10-12T12:34:42.866Z,13.70
2022-10-12T12:37:35.702Z,15.77
2022-10-12T12:40:19.663Z,14.85
2022-10-12T12:43:41.704Z,14.73
2022-10-12T12:46:25.659Z,15.30
2022-10-12T12:49:39.666Z,13.48
2022-10-12T12:52:43.166Z,14.45
2022-10-12T12:55:21.741Z,16.52
2022-10-12T12:58:26.665Z,15.48
2022-10-12T13:01:51.736Z,14.27
2022-10-12T13:05:24.678Z,14.07
2022-10-12T13:08:33.703Z,14.75
2022-10-12T13:11:09.748Z,17.33
2022-10-12T13:14:27.660Z,16.52
2022-10-12T13:17:32.285Z,16.15
2022-10-12T13:20:39.699Z,14.52
2022-10-12T13:23:30.679Z,18.80
2022-10-12T13:26:15.686Z,14.57
2022-10-12T13:29:03.707Z,16.05
2022-10-12T13:31:51.751Z,19.05
2022-10-12T13:34:44.659Z,15.25
2022-10-12T13:37:20.732Z,15.80
2022-10-12T13:40:07.669Z,14.25
2022-10-12T13:42:41.751Z,14.20
2022-10-12T13:45:28.681Z,14.13
2022-10-12T13:48:10.799Z,16.00
2022-10-12T13:51:02.700Z,13.80
2022-10-12T13:53:45.726Z,15.30
2022-10-12T13:56:36.700Z,14.25
2022-10-12T13:59:12.570Z,14.75
2022-10-12T14:02:08.690Z,16.27
2022-10-12T14:04:48.705Z,15.50
2022-10-12T14:07:54.694Z,15.57
2022-10-12T14:10:50.704Z,19.33
2022-10-12T14:13:40.683Z,15.88
2022-10-12T14:16:13.772Z,14.93
2022-10-12T14:19:00.707Z,15.73
2022-10-12T14:21:37.025Z,16.83
2022-10-12T14:24:32.711Z,18.40
2022-10-12T14:27:37.679Z,16.58
2022-10-12T14:30:28.697Z,17.65
2022-10-12T14:33:15.788Z,18.88
2022-10-12T14:36:37.694Z,16.90
2022-10-12T14:39:20.824Z,15.80
2022-10-12T14:42:10.703Z,18.38
2022-10-12T14:44:56.696Z,15.07
2022-10-12T14:47:53.721Z,14.65
2022-10-12T14:50:40.691Z,17.75
2022-10-12T14:53:17.775Z,17.17
2022-10-12T14:56:04.716Z,15.98
2022-10-12T14:58:38.021Z,14.95
2022-10-12T15:01:24.788Z,17.23
2022-10-12T15:03:57.773Z,15.50
2022-10-12T15:06:49.811Z,16.48
2022-10-12T15:09:30.718Z,16.70
2022-10-12T15:12:23.709Z,15.77
2022-10-12T15:15:05.736Z,16.50
2022-10-12T15:17:59.735Z,16.42
2022-10-12T15:20:55.738Z,17.13
2022-10-12T15:23:49.783Z,18.63
2022-10-12T15:26:43.739Z,20.85
2022-10-12T15:29:30.704Z,19.05
2022-10-12T15:32:10.716Z,26.52
2022-10-12T15:34:58.721Z,28.05
2022-10-12T15:37:32.112Z,23.60
2022-10-12T15:40:18.728Z,20.50
2022-10-12T15:42:51.797Z,19.42
2022-10-12T15:45:41.703Z,24.70
2022-10-12T15:48:15.822Z,17.55
2022-10-12T15:51:02.722Z,16.90
2022-10-12T15:53:35.797Z,17.13
2022-10-12T15:56:23.713Z,17.30
2022-10-12T15:58:56.812Z,23.00
2022-10-12T16:01:44.733Z,18.45
2022-10-12T16:04:20.797Z,17.95
2022-10-12T16:07:08.746Z,17.48
2022-10-12T16:09:41.836Z,17.35
2022-10-12T16:12:28.737Z,19.60
2022-10-12T16:15:01.810Z,20.40
2022-10-12T16:17:48.729Z,21.05
2022-10-12T16:20:29.776Z,22.75
2022-10-12T16:23:28.726Z,18.27
2022-10-12T16:26:25.771Z,18.55
2022-10-12T16:29:15.518Z,20.08
2022-10-12T16:31:48.816Z,21.05
2022-10-12T16:34:36.758Z,24.65
2022-10-12T16:37:16.754Z,24.20
2022-10-12T16:40:03.746Z,23.35
2022-10-12T16:42:36.893Z,20.08
2022-10-12T16:45:23.765Z,20.00
2022-10-12T16:47:56.823Z,21.15
2022-10-12T16:50:46.755Z,22.17
2022-10-12T16:53:19.854Z,27.75
2022-10-12T16:56:06.767Z,21.35
2022-10-12T16:58:39.833Z,25.48
2022-10-12T17:01:26.779Z,21.92
2022-10-12T17:04:08.778Z,21.60
2022-10-12T17:07:02.748Z,25.15
2022-10-12T17:09:56.742Z,28.45
2022-10-12T17:12:43.796Z,28.95
2022-10-12T17:15:16.868Z,38.90
2022-10-12T17:18:04.756Z,33.92
2022-10-12T17:20:37.888Z,30.17
2022-10-12T17:23:24.759Z,26.45
2022-10-12T17:26:05.848Z,31.58
2022-10-12T17:28:52.828Z,28.27
2022-10-12T17:31:26.295Z,29.17
2022-10-12T17:34:13.756Z,37.10
2022-10-12T17:36:46.908Z,37.92
2022-10-12T17:39:36.816Z,38.42
2022-10-12T17:42:18.209Z,42.90
2022-10-12T17:45:11.823Z,42.45
2022-10-12T17:47:58.768Z,34.30
2022-10-12T17:50:31.852Z,34.83
2022-10-12T17:53:18.783Z,37.22
2022-10-12T17:55:54.544Z,24.73
2022-10-12T17:58:44.775Z,28.20
2022-10-12T18:01:21.108Z,27.13
2022-10-12T18:04:09.805Z,26.75
2022-10-12T18:06:42.918Z,30.70
2022-10-12T18:09:29.827Z,23.98
2022-10-12T18:12:02.866Z,28.02
2022-10-12T18:14:49.897Z,25.58
2022-10-12T18:17:22.942Z,28.70
2022-10-12T18:20:10.807Z,29.33
2022-10-12T18:22:43.872Z,27.90
2022-10-12T18:25:37.816Z,29.75
2022-10-12T18:28:31.849Z,26.63
2022-10-12T18:31:24.808Z,28.30
2022-10-12T18:33:58.914Z,21.00
2022-10-12T18:36:47.807Z,24.35
2022-10-12T18:39:27.825Z,30.23
2022-10-12T18:42:21.829Z,26.98
2022-10-12T18:45:15.791Z,25.08
2022-10-12T18:48:02.790Z,24.27
2022-10-12T18:50:42.812Z,23.98
2022-10-12T18:53:36.783Z,28.77
2022-10-12T18:56:24.814Z,34.40
2022-10-12T18:58:57.951Z,29.33
2022-10-12T19:01:44.802Z,27.88
2022-10-12T19:04:25.824Z,27.77
2022-10-12T19:07:12.832Z,27.65
2022-10-12T19:09:52.912Z,27.67
2022-10-12T19:12:46.810Z,33.92
2022-10-12T19:15:35.757Z,27.70
2022-10-12T19:18:09.069Z,32.10
2022-10-12T19:20:55.824Z,27.60
2022-10-12T19:23:28.876Z,34.60
2022-10-12T19:26:22.817Z,31.90
2022-10-12T19:28:58.453Z,36.30
2022-10-12T19:31:48.812Z,26.90
2022-10-12T19:34:24.113Z,32.30
2022-10-12T19:37:10.817Z,29.85
2022-10-12T19:39:53.800Z,25.42
2022-10-12T19:42:47.848Z,32.85
2022-10-12T19:45:34.842Z,29.02
2022-10-12T19:48:07.948Z,25.80
2022-10-12T19:50:54.818Z,28.45
2022-10-12T19:53:28.148Z,34.55
2022-10-12T19:56:17.855Z,35.30
2022-10-12T19:58:52.931Z,30.83
2022-10-12T20:01:44.823Z,29.48
2022-10-12T20:04:17.984Z,29.55
2022-10-12T20:07:04.839Z,27.00
2022-10-12T20:09:37.919Z,27.85
2022-10-12T20:12:24.827Z,25.88
2022-10-12T20:14:57.918Z,26.45
2022-10-12T20:17:45.843Z,27.10
2022-10-12T20:20:25.880Z,29.98
2022-10-12T20:23:19.833Z,29.55
2022-10-12T20:26:13.841Z,23.35
2022-10-12T20:29:01.850Z,29.13
2022-10-12T20:31:35.055Z,29.83
2022-10-12T20:34:21.868Z,24.25
2022-10-12T20:36:54.940Z,31.33
2022-10-12T20:39:41.851Z,29.42
2022-10-12T20:42:19.192Z,28.48
2022-10-12T20:45:07.828Z,24.60
2022-10-12T20:47:40.958Z,26.65
2022-10-12T20:50:27.836Z,26.77
2022-10-12T20:53:00.936Z,22.00
2022-10-12T20:55:47.834Z,27.45
2022-10-12T20:58:24.370Z,27.40
2022-10-12T21:01:16.909Z,27.77
2022-10-12T21:03:49.996Z,23.23
2022-10-12T21:06:36.874Z,27.13
2022-10-12T21:09:11.938Z,27.65
2022-10-12T21:11:58.879Z,28.85
2022-10-12T21:14:31.939Z,28.20
2022-10-12T21:17:18.838Z,24.98
2022-10-12T21:19:53.718Z,23.30
2022-10-12T21:22:33.845Z,27.38
2022-10-12T21:25:20.879Z,23.55
2022-10-12T21:28:07.883Z,21.92
2022-10-12T21:30:47.874Z,22.05
2022-10-12T21:33:41.850Z,24.30
2022-10-12T21:36:30.867Z,26.92
2022-10-12T21:39:04.950Z,25.42
2022-10-12T21:41:51.867Z,24.52
2022-10-12T21:44:24.993Z,25.80
2022-10-12T21:47:15.992Z,22.13
2022-10-12T21:49:50.960Z,27.25
2022-10-12T21:52:37.894Z,23.70
2022-10-12T21:55:10.957Z,26.50
2022-10-12T21:57:57.874Z,25.98
2022-10-12T22:00:31.006Z,27.17
2022-10-12T22:03:17.862Z,23.90
2022-10-12T22:05:51.963Z,26.52
2022-10-12T22:08:31.863Z,27.30
2022-10-12T22:11:15.067Z,26.60
2022-10-12T22:13:55.911Z,24.90
2022-10-12T22:16:36.793Z,24.02
2022-10-12T22:19:21.893Z,25.55
2022-10-12T22:22:01.946Z,26.67
2022-10-12T22:24:41.902Z,25.40
2022-10-12T22:27:28.891Z,23.98
2022-10-12T22:30:15.917Z,24.02
2022-10-12T22:32:49.038Z,23.50
2022-10-12T22:35:35.873Z,22.98
2022-10-12T22:38:09.593Z,21.40
2022-10-12T22:41:07.888Z,21.27
2022-10-12T22:43:40.967Z,24.80
2022-10-12T22:46:29.898Z,22.95
2022-10-12T22:49:04.207Z,20.30
2022-10-12T22:51:51.104Z,20.80
2022-10-12T22:54:23.959Z,22.25
2022-10-12T22:57:10.895Z,21.58
2022-10-12T22:59:43.965Z,19.58
2022-10-12T23:02:30.929Z,21.10
2022-10-12T23:05:03.985Z,21.25
2022-10-12T23:07:50.905Z,22.10
2022-10-12T23:10:24.096Z,22.02
2022-10-12T23:13:10.916Z,19.95
2022-10-12T23:15:44.044Z,20.42
2022-10-12T23:18:30.897Z,21.30
2022-10-12T23:21:19.918Z,21.27
2022-10-12T23:23:53.159Z,20.25
2022-10-12T23:26:40.914Z,20.95
2022-10-12T23:29:34.937Z,20.95
2022-10-12T23:32:22.925Z,19.25
2022-10-12T23:34:56.001Z,19.17
2022-10-12T23:37:44.264Z,22.13
2022-10-12T23:40:18.776Z,21.15
2022-10-12T23:43:05.926Z,19.38
2022-10-12T23:45:38.986Z,21.17
2022-10-12T23:48:25.926Z,23.50
2022-10-12T23:50:59.997Z,21.80
2022-10-12T23:53:48.934Z,20.90
2022-10-12T23:56:28.917Z,20.75
2022-10-12T23:59:15.923Z,20.45
